Allen, Nebraska
Current Conditions -  °F | °C
As of 9:35 PM on Friday 19 Dec 2014 (Local Time) from KLCG Reporting Station
Overcast Overcast  
Wind Chill: 24°   Ceiling: 1100
Heat Index: 33°   Visibility: 7mi
Dew Point: 30°   Wind: 12mph
Humidity: 89%   Direction: 200°SSW
Pressure: 30.09"   Gusts: 16mph
Location:  42.42°N, 96.85°W
Report Text: KLCG 200335Z AUTO 20010G14KT 7SM OVC011 01/M01 A3009 RMK AO2 T00061011
Loading
Personal Weather Stations






























Interactive Weather Map New forecast layout! Learn more

10-Day Weather Forecast

Advertisements
Track Severe Weather on mobile